Portada
METAR-TAF:

METAR-TAF

Aeroports :

Nukus, Uzbekistan

latitud: 42-28-48N, longitud: 059-37-48E, altitud: 77 m

Observació

L'informe es va fer fa 43 minuts, a les 09:00 UTC
Vent 10 kt del Est/Nord-Est
Temperatura 19°C
Humitat 15%
Pressió 1022 hPa
Visibilitat 10 km o més
sense núvols per sota de 1500 mi sense presència de cumulonimbus.

METAR: UTNN 310900Z 07010KT CAVOK 19/M08 Q1022 R33/CLRD60 NOSIG

Hora: 14:43 (09:43 UTC)

Pronòstic

L'informe es va fer fa 4 hores i 43 minuts, a les 05:00 UTC
Pronòstic vàlid del 31 a les 06 UTC al 01 a les 06 UTC
Vent 10 kt del Est amb ràfegues de 20 kt
Visibilitat 10 km o més
sense núvols per sota de 1500 mi sense presència de cumulonimbus.
Temporalment
l' 01 a les 00 UTC al 01 a les 06 UTC
Vent 8 kt del Nord-Est amb ràfegues de 18 kt

TAF: UTNN 310500Z 3106/0106 08010G20KT CAVOK TEMPO 0100/0106 04008G18KT

Observacions i pronòstics meteorològics de més de 4000 aeroports (METAR i TAF).

Les estacions disponibles són els punts grocs i vermells al mapa.

Posi el ratolí al punt desitjat per veure el nom de l'estació.

Feu clic per veure les observacions i els pronòstics meteorològics.

Per canviar el mapa: feu clic els botons verds amb una creu de color negre per apropar; al botó verd amb un guió per allunyar la imatge; o en les fletxes verdes per a mapes adjacents.


METAR-TAF: